sensor_id;sensor_type;location;lat;lon;timestamp;P1;durP1;ratioP1;P2;durP2;ratioP2
44348;SDS011;30068;50.986;4.564;2022-07-01T00:00:51;9.27;;;3.42;;
44348;SDS011;30068;50.986;4.564;2022-07-01T00:03:16;7.63;;;2.58;;
44348;SDS011;30068;50.986;4.564;2022-07-01T00:05:42;8.65;;;2.80;;
44348;SDS011;30068;50.986;4.564;2022-07-01T00:08:08;11.55;;;2.20;;
44348;SDS011;30068;50.986;4.564;2022-07-01T00:10:33;5.13;;;2.10;;
44348;SDS011;30068;50.986;4.564;2022-07-01T00:13:02;6.75;;;1.98;;
44348;SDS011;30068;50.986;4.564;2022-07-01T00:15:28;32.55;;;2.78;;
44348;SDS011;30068;50.986;4.564;2022-07-01T00:17:54;13.32;;;2.17;;
44348;SDS011;30068;50.986;4.564;2022-07-01T00:20:20;6.60;;;2.28;;
44348;SDS011;30068;50.986;4.564;2022-07-01T00:22:46;6.72;;;2.05;;
44348;SDS011;30068;50.986;4.564;2022-07-01T00:25:12;22.40;;;2.95;;
44348;SDS011;30068;50.986;4.564;2022-07-01T00:27:38;6.22;;;2.42;;
44348;SDS011;30068;50.986;4.564;2022-07-01T00:30:07;5.90;;;1.92;;
44348;SDS011;30068;50.986;4.564;2022-07-01T00:32:34;6.00;;;2.00;;
44348;SDS011;30068;50.986;4.564;2022-07-01T00:35:00;10.93;;;1.48;;
44348;SDS011;30068;50.986;4.564;2022-07-01T00:37:25;14.18;;;2.30;;
44348;SDS011;30068;50.986;4.564;2022-07-01T00:39:51;10.50;;;2.58;;
44348;SDS011;30068;50.986;4.564;2022-07-01T00:42:17;7.53;;;2.60;;
44348;SDS011;30068;50.986;4.564;2022-07-01T00:44:42;9.75;;;3.25;;
44348;SDS011;30068;50.986;4.564;2022-07-01T00:47:09;10.95;;;3.25;;
44348;SDS011;30068;50.986;4.564;2022-07-01T00:49:37;10.00;;;3.08;;
44348;SDS011;30068;50.986;4.564;2022-07-01T00:52:04;12.88;;;3.70;;
44348;SDS011;30068;50.986;4.564;2022-07-01T00:54:33;11.23;;;3.63;;
44348;SDS011;30068;50.986;4.564;2022-07-01T00:57:04;11.60;;;3.35;;
44348;SDS011;30068;50.986;4.564;2022-07-01T00:59:32;9.38;;;3.15;;
44348;SDS011;30068;50.986;4.564;2022-07-01T01:01:59;11.68;;;3.20;;
44348;SDS011;30068;50.986;4.564;2022-07-01T01:04:25;12.48;;;3.45;;
44348;SDS011;30068;50.986;4.564;2022-07-01T01:06:57;8.55;;;3.50;;
44348;SDS011;30068;50.986;4.564;2022-07-01T01:09:25;12.93;;;3.30;;
44348;SDS011;30068;50.986;4.564;2022-07-01T01:11:51;14.60;;;3.05;;
44348;SDS011;30068;50.986;4.564;2022-07-01T01:14:16;10.10;;;3.08;;
44348;SDS011;30068;50.986;4.564;2022-07-01T01:16:42;7.15;;;3.10;;
44348;SDS011;30068;50.986;4.564;2022-07-01T01:19:08;11.18;;;3.60;;
44348;SDS011;30068;50.986;4.564;2022-07-01T01:21:33;8.65;;;3.22;;
44348;SDS011;30068;50.986;4.564;2022-07-01T01:23:59;7.28;;;2.88;;
44348;SDS011;30068;50.986;4.564;2022-07-01T01:26:25;11.35;;;3.20;;
44348;SDS011;30068;50.986;4.564;2022-07-01T01:28:51;8.00;;;3.30;;
44348;SDS011;30068;50.986;4.564;2022-07-01T01:31:17;10.02;;;3.30;;
44348;SDS011;30068;50.986;4.564;2022-07-01T01:33:55;10.43;;;3.22;;
44348;SDS011;30068;50.986;4.564;2022-07-01T01:36:21;9.63;;;3.25;;
44348;SDS011;30068;50.986;4.564;2022-07-01T01:38:47;9.30;;;3.25;;
44348;SDS011;30068;50.986;4.564;2022-07-01T01:41:13;7.63;;;3.13;;
44348;SDS011;30068;50.986;4.564;2022-07-01T01:43:38;11.65;;;3.13;;
44348;SDS011;30068;50.986;4.564;2022-07-01T01:46:04;8.43;;;3.17;;
44348;SDS011;30068;50.986;4.564;2022-07-01T01:48:30;7.28;;;3.10;;
44348;SDS011;30068;50.986;4.564;2022-07-01T01:50:56;9.57;;;3.45;;
44348;SDS011;30068;50.986;4.564;2022-07-01T01:53:23;7.78;;;3.17;;
44348;SDS011;30068;50.986;4.564;2022-07-01T01:55:49;9.63;;;2.90;;
44348;SDS011;30068;50.986;4.564;2022-07-01T01:58:15;11.00;;;3.40;;
44348;SDS011;30068;50.986;4.564;2022-07-01T02:00:40;7.38;;;3.08;;
44348;SDS011;30068;50.986;4.564;2022-07-01T02:03:06;10.43;;;3.30;;
44348;SDS011;30068;50.986;4.564;2022-07-01T02:05:32;7.65;;;3.00;;
44348;SDS011;30068;50.986;4.564;2022-07-01T02:08:00;7.47;;;2.80;;
44348;SDS011;30068;50.986;4.564;2022-07-01T02:10:27;9.90;;;3.33;;
44348;SDS011;30068;50.986;4.564;2022-07-01T02:12:52;7.30;;;3.22;;
44348;SDS011;30068;50.986;4.564;2022-07-01T02:15:18;8.50;;;3.00;;
44348;SDS011;30068;50.986;4.564;2022-07-01T02:17:44;9.60;;;3.45;;
44348;SDS011;30068;50.986;4.564;2022-07-01T02:20:10;10.13;;;3.30;;
44348;SDS011;30068;50.986;4.564;2022-07-01T02:22:40;13.95;;;3.60;;
44348;SDS011;30068;50.986;4.564;2022-07-01T02:25:07;7.47;;;3.25;;
44348;SDS011;30068;50.986;4.564;2022-07-01T02:27:33;12.65;;;3.72;;
44348;SDS011;30068;50.986;4.564;2022-07-01T02:29:59;11.90;;;3.60;;
44348;SDS011;30068;50.986;4.564;2022-07-01T02:32:25;11.38;;;3.30;;
44348;SDS011;30068;50.986;4.564;2022-07-01T02:34:50;10.02;;;3.22;;
44348;SDS011;30068;50.986;4.564;2022-07-01T02:37:16;9.93;;;3.58;;
44348;SDS011;30068;50.986;4.564;2022-07-01T02:39:42;8.85;;;3.38;;
44348;SDS011;30068;50.986;4.564;2022-07-01T02:42:07;11.45;;;3.88;;
44348;SDS011;30068;50.986;4.564;2022-07-01T02:44:48;12.60;;;4.15;;
44348;SDS011;30068;50.986;4.564;2022-07-01T02:47:14;13.45;;;3.45;;
44348;SDS011;30068;50.986;4.564;2022-07-01T02:49:39;12.70;;;3.85;;
44348;SDS011;30068;50.986;4.564;2022-07-01T02:52:05;10.25;;;3.50;;
44348;SDS011;30068;50.986;4.564;2022-07-01T02:54:32;13.45;;;4.22;;
44348;SDS011;30068;50.986;4.564;2022-07-01T02:56:57;10.63;;;4.10;;
44348;SDS011;30068;50.986;4.564;2022-07-01T02:59:23;10.65;;;3.55;;
44348;SDS011;30068;50.986;4.564;2022-07-01T03:01:49;7.57;;;3.03;;
44348;SDS011;30068;50.986;4.564;2022-07-01T03:04:14;6.57;;;2.40;;
44348;SDS011;30068;50.986;4.564;2022-07-01T03:06:40;7.03;;;2.58;;
44348;SDS011;30068;50.986;4.564;2022-07-01T03:09:06;48.88;;;2.85;;
44348;SDS011;30068;50.986;4.564;2022-07-01T03:11:32;6.93;;;2.30;;
44348;SDS011;30068;50.986;4.564;2022-07-01T03:13:57;9.02;;;2.75;;
44348;SDS011;30068;50.986;4.564;2022-07-01T03:16:23;10.68;;;3.80;;
44348;SDS011;30068;50.986;4.564;2022-07-01T03:18:49;14.73;;;4.07;;
44348;SDS011;30068;50.986;4.564;2022-07-01T03:21:14;11.52;;;4.00;;
44348;SDS011;30068;50.986;4.564;2022-07-01T03:23:40;11.30;;;4.57;;
44348;SDS011;30068;50.986;4.564;2022-07-01T03:26:05;13.85;;;4.55;;
44348;SDS011;30068;50.986;4.564;2022-07-01T03:28:31;19.27;;;4.80;;
44348;SDS011;30068;50.986;4.564;2022-07-01T03:31:00;12.65;;;4.10;;
44348;SDS011;30068;50.986;4.564;2022-07-01T03:33:26;11.65;;;4.07;;
44348;SDS011;30068;50.986;4.564;2022-07-01T03:35:52;15.60;;;4.43;;
44348;SDS011;30068;50.986;4.564;2022-07-01T03:38:17;10.48;;;4.18;;
44348;SDS011;30068;50.986;4.564;2022-07-01T03:40:43;9.13;;;2.40;;
44348;SDS011;30068;50.986;4.564;2022-07-01T03:43:09;9.70;;;3.42;;
44348;SDS011;30068;50.986;4.564;2022-07-01T03:45:35;17.58;;;3.83;;
44348;SDS011;30068;50.986;4.564;2022-07-01T03:48:00;12.23;;;4.15;;
44348;SDS011;30068;50.986;4.564;2022-07-01T03:50:27;14.40;;;4.50;;
44348;SDS011;30068;50.986;4.564;2022-07-01T03:52:53;9.10;;;3.58;;
44348;SDS011;30068;50.986;4.564;2022-07-01T03:55:38;8.30;;;3.13;;
44348;SDS011;30068;50.986;4.564;2022-07-01T03:58:04;14.95;;;4.40;;
44348;SDS011;30068;50.986;4.564;2022-07-01T04:00:32;17.67;;;4.82;;
44348;SDS011;30068;50.986;4.564;2022-07-01T04:02:59;14.50;;;4.75;;
44348;SDS011;30068;50.986;4.564;2022-07-01T04:05:24;12.20;;;4.13;;
44348;SDS011;30068;50.986;4.564;2022-07-01T04:07:52;16.83;;;4.35;;
44348;SDS011;30068;50.986;4.564;2022-07-01T04:10:17;12.15;;;4.05;;
44348;SDS011;30068;50.986;4.564;2022-07-01T04:12:43;11.88;;;4.45;;
44348;SDS011;30068;50.986;4.564;2022-07-01T04:15:09;12.75;;;4.25;;
44348;SDS011;30068;50.986;4.564;2022-07-01T04:17:36;12.48;;;4.88;;
44348;SDS011;30068;50.986;4.564;2022-07-01T04:20:01;10.73;;;4.40;;
44348;SDS011;30068;50.986;4.564;2022-07-01T04:22:29;14.15;;;4.50;;
44348;SDS011;30068;50.986;4.564;2022-07-01T04:24:57;11.40;;;4.47;;
44348;SDS011;30068;50.986;4.564;2022-07-01T04:27:23;11.32;;;4.10;;
44348;SDS011;30068;50.986;4.564;2022-07-01T04:29:48;11.50;;;4.50;;
44348;SDS011;30068;50.986;4.564;2022-07-01T04:32:14;11.25;;;4.57;;
44348;SDS011;30068;50.986;4.564;2022-07-01T04:34:40;10.02;;;4.55;;
44348;SDS011;30068;50.986;4.564;2022-07-01T04:37:07;14.43;;;5.30;;
44348;SDS011;30068;50.986;4.564;2022-07-01T04:39:32;14.50;;;5.28;;
44348;SDS011;30068;50.986;4.564;2022-07-01T04:41:58;14.43;;;5.07;;
44348;SDS011;30068;50.986;4.564;2022-07-01T04:44:24;12.23;;;5.07;;
44348;SDS011;30068;50.986;4.564;2022-07-01T04:46:50;12.32;;;5.40;;
44348;SDS011;30068;50.986;4.564;2022-07-01T04:49:16;15.65;;;5.95;;
44348;SDS011;30068;50.986;4.564;2022-07-01T04:51:41;12.23;;;5.90;;
44348;SDS011;30068;50.986;4.564;2022-07-01T04:54:07;17.17;;;6.13;;
44348;SDS011;30068;50.986;4.564;2022-07-01T04:56:34;13.07;;;6.43;;
44348;SDS011;30068;50.986;4.564;2022-07-01T04:59:01;16.65;;;6.68;;
44348;SDS011;30068;50.986;4.564;2022-07-01T05:01:28;13.20;;;5.93;;
44348;SDS011;30068;50.986;4.564;2022-07-01T05:03:54;16.45;;;6.20;;
44348;SDS011;30068;50.986;4.564;2022-07-01T05:06:20;15.40;;;6.07;;
44348;SDS011;30068;50.986;4.564;2022-07-01T05:08:46;17.35;;;6.20;;
44348;SDS011;30068;50.986;4.564;2022-07-01T05:11:11;14.43;;;5.90;;
44348;SDS011;30068;50.986;4.564;2022-07-01T05:13:37;14.10;;;6.15;;
44348;SDS011;30068;50.986;4.564;2022-07-01T05:16:03;13.23;;;5.78;;
44348;SDS011;30068;50.986;4.564;2022-07-01T05:18:29;16.25;;;5.90;;
44348;SDS011;30068;50.986;4.564;2022-07-01T05:21:14;14.65;;;5.80;;
44348;SDS011;30068;50.986;4.564;2022-07-01T05:23:58;15.15;;;5.63;;
44348;SDS011;30068;50.986;4.564;2022-07-01T05:26:24;15.10;;;5.43;;
44348;SDS011;30068;50.986;4.564;2022-07-01T05:28:51;13.48;;;5.43;;
44348;SDS011;30068;50.986;4.564;2022-07-01T05:31:18;12.98;;;5.10;;
44348;SDS011;30068;50.986;4.564;2022-07-01T05:33:44;12.68;;;5.13;;
44348;SDS011;30068;50.986;4.564;2022-07-01T05:36:10;10.90;;;4.90;;
44348;SDS011;30068;50.986;4.564;2022-07-01T05:38:36;14.80;;;5.63;;
44348;SDS011;30068;50.986;4.564;2022-07-01T05:41:02;15.25;;;5.72;;
44348;SDS011;30068;50.986;4.564;2022-07-01T05:43:27;13.18;;;4.82;;
44348;SDS011;30068;50.986;4.564;2022-07-01T05:45:55;14.27;;;5.20;;
44348;SDS011;30068;50.986;4.564;2022-07-01T05:48:21;13.07;;;5.20;;
44348;SDS011;30068;50.986;4.564;2022-07-01T05:50:47;12.40;;;5.15;;
44348;SDS011;30068;50.986;4.564;2022-07-01T05:53:13;11.77;;;4.72;;
44348;SDS011;30068;50.986;4.564;2022-07-01T05:55:39;13.98;;;4.35;;
44348;SDS011;30068;50.986;4.564;2022-07-01T05:58:05;11.88;;;4.80;;
44348;SDS011;30068;50.986;4.564;2022-07-01T06:00:34;11.35;;;4.60;;
44348;SDS011;30068;50.986;4.564;2022-07-01T06:03:00;13.48;;;4.53;;
44348;SDS011;30068;50.986;4.564;2022-07-01T06:05:26;15.07;;;4.10;;
44348;SDS011;30068;50.986;4.564;2022-07-01T06:07:51;12.68;;;4.22;;
44348;SDS011;30068;50.986;4.564;2022-07-01T06:10:17;9.75;;;3.25;;
44348;SDS011;30068;50.986;4.564;2022-07-01T06:12:43;9.10;;;2.30;;
44348;SDS011;30068;50.986;4.564;2022-07-01T06:15:10;10.02;;;2.40;;
44348;SDS011;30068;50.986;4.564;2022-07-01T06:17:37;5.78;;;1.80;;
44348;SDS011;30068;50.986;4.564;2022-07-01T06:20:04;10.27;;;2.08;;
44348;SDS011;30068;50.986;4.564;2022-07-01T06:22:31;9.38;;;1.98;;
44348;SDS011;30068;50.986;4.564;2022-07-01T06:24:58;5.50;;;2.25;;
44348;SDS011;30068;50.986;4.564;2022-07-01T06:27:23;6.80;;;1.92;;
44348;SDS011;30068;50.986;4.564;2022-07-01T06:29:49;6.60;;;1.90;;
44348;SDS011;30068;50.986;4.564;2022-07-01T06:32:16;7.05;;;2.05;;
44348;SDS011;30068;50.986;4.564;2022-07-01T06:34:41;4.78;;;2.00;;
44348;SDS011;30068;50.986;4.564;2022-07-01T06:37:07;7.18;;;1.75;;
44348;SDS011;30068;50.986;4.564;2022-07-01T06:39:33;5.95;;;1.50;;
44348;SDS011;30068;50.986;4.564;2022-07-01T06:41:59;6.30;;;1.20;;
44348;SDS011;30068;50.986;4.564;2022-07-01T06:44:24;6.00;;;1.70;;
44348;SDS011;30068;50.986;4.564;2022-07-01T06:46:50;6.43;;;1.40;;
44348;SDS011;30068;50.986;4.564;2022-07-01T06:49:16;7.25;;;1.30;;
44348;SDS011;30068;50.986;4.564;2022-07-01T06:51:42;7.53;;;1.20;;
44348;SDS011;30068;50.986;4.564;2022-07-01T06:54:08;6.70;;;1.33;;
44348;SDS011;30068;50.986;4.564;2022-07-01T06:56:34;6.32;;;1.40;;
44348;SDS011;30068;50.986;4.564;2022-07-01T06:59:00;5.18;;;1.27;;
44348;SDS011;30068;50.986;4.564;2022-07-01T07:01:27;6.30;;;1.40;;
44348;SDS011;30068;50.986;4.564;2022-07-01T07:03:52;11.85;;;1.30;;
44348;SDS011;30068;50.986;4.564;2022-07-01T07:06:19;6.07;;;1.30;;
44348;SDS011;30068;50.986;4.564;2022-07-01T07:08:44;4.45;;;1.42;;
44348;SDS011;30068;50.986;4.564;2022-07-01T07:11:10;5.47;;;1.20;;
44348;SDS011;30068;50.986;4.564;2022-07-01T07:13:36;5.35;;;1.33;;
44348;SDS011;30068;50.986;4.564;2022-07-01T07:16:03;5.63;;;0.90;;
44348;SDS011;30068;50.986;4.564;2022-07-01T07:18:29;2.90;;;0.80;;
44348;SDS011;30068;50.986;4.564;2022-07-01T07:20:55;5.28;;;0.80;;
44348;SDS011;30068;50.986;4.564;2022-07-01T07:23:21;3.83;;;0.70;;
44348;SDS011;30068;50.986;4.564;2022-07-01T07:25:47;2.80;;;0.70;;
44348;SDS011;30068;50.986;4.564;2022-07-01T07:28:13;3.35;;;0.75;;
44348;SDS011;30068;50.986;4.564;2022-07-01T07:30:39;3.15;;;0.73;;
44348;SDS011;30068;50.986;4.564;2022-07-01T07:33:04;5.85;;;0.90;;
44348;SDS011;30068;50.986;4.564;2022-07-01T07:35:30;6.40;;;0.90;;
44348;SDS011;30068;50.986;4.564;2022-07-01T07:37:57;5.47;;;0.80;;
44348;SDS011;30068;50.986;4.564;2022-07-01T07:40:22;5.03;;;0.80;;
44348;SDS011;30068;50.986;4.564;2022-07-01T07:42:49;2.78;;;0.50;;
44348;SDS011;30068;50.986;4.564;2022-07-01T07:45:15;2.33;;;0.50;;
44348;SDS011;30068;50.986;4.564;2022-07-01T07:47:41;4.43;;;0.70;;
44348;SDS011;30068;50.986;4.564;2022-07-01T07:50:09;1.83;;;0.75;;
44348;SDS011;30068;50.986;4.564;2022-07-01T07:52:36;3.70;;;0.77;;
44348;SDS011;30068;50.986;4.564;2022-07-01T07:55:02;4.43;;;0.60;;
44348;SDS011;30068;50.986;4.564;2022-07-01T07:57:29;4.53;;;0.82;;
44348;SDS011;30068;50.986;4.564;2022-07-01T07:59:56;4.38;;;0.70;;
44348;SDS011;30068;50.986;4.564;2022-07-01T08:02:22;4.43;;;0.50;;
44348;SDS011;30068;50.986;4.564;2022-07-01T08:04:48;5.22;;;0.65;;
44348;SDS011;30068;50.986;4.564;2022-07-01T08:07:13;4.63;;;0.60;;
44348;SDS011;30068;50.986;4.564;2022-07-01T08:09:39;3.58;;;0.70;;
44348;SDS011;30068;50.986;4.564;2022-07-01T08:12:07;3.63;;;0.43;;
44348;SDS011;30068;50.986;4.564;2022-07-01T08:14:33;2.08;;;0.43;;
44348;SDS011;30068;50.986;4.564;2022-07-01T08:16:58;3.00;;;0.70;;
44348;SDS011;30068;50.986;4.564;2022-07-01T08:19:24;4.35;;;0.60;;
44348;SDS011;30068;50.986;4.564;2022-07-01T08:21:50;2.92;;;0.45;;
44348;SDS011;30068;50.986;4.564;2022-07-01T08:24:15;3.08;;;0.63;;
44348;SDS011;30068;50.986;4.564;2022-07-01T08:26:41;3.20;;;0.60;;
44348;SDS011;30068;50.986;4.564;2022-07-01T08:29:07;5.63;;;0.65;;
44348;SDS011;30068;50.986;4.564;2022-07-01T08:31:32;2.88;;;0.63;;
44348;SDS011;30068;50.986;4.564;2022-07-01T08:33:58;3.30;;;0.73;;
44348;SDS011;30068;50.986;4.564;2022-07-01T08:36:24;3.78;;;0.70;;
44348;SDS011;30068;50.986;4.564;2022-07-01T08:38:49;2.85;;;0.60;;
44348;SDS011;30068;50.986;4.564;2022-07-01T08:41:15;4.35;;;0.70;;
44348;SDS011;30068;50.986;4.564;2022-07-01T08:43:44;4.70;;;0.60;;
44348;SDS011;30068;50.986;4.564;2022-07-01T08:46:10;3.80;;;0.60;;
44348;SDS011;30068;50.986;4.564;2022-07-01T08:48:36;3.95;;;0.63;;
44348;SDS011;30068;50.986;4.564;2022-07-01T08:51:02;3.58;;;0.80;;
44348;SDS011;30068;50.986;4.564;2022-07-01T08:53:29;3.40;;;0.73;;
44348;SDS011;30068;50.986;4.564;2022-07-01T08:55:56;5.35;;;0.70;;
44348;SDS011;30068;50.986;4.564;2022-07-01T08:58:41;4.70;;;0.70;;
44348;SDS011;30068;50.986;4.564;2022-07-01T09:03:46;4.00;;;0.88;;
44348;SDS011;30068;50.986;4.564;2022-07-01T09:06:14;3.08;;;0.50;;
44348;SDS011;30068;50.986;4.564;2022-07-01T09:08:45;3.17;;;0.65;;
44348;SDS011;30068;50.986;4.564;2022-07-01T09:11:21;2.97;;;0.63;;
44348;SDS011;30068;50.986;4.564;2022-07-01T09:14:04;5.28;;;0.77;;
44348;SDS011;30068;50.986;4.564;2022-07-01T09:16:38;7.25;;;0.80;;
44348;SDS011;30068;50.986;4.564;2022-07-01T09:19:09;2.58;;;0.47;;
44348;SDS011;30068;50.986;4.564;2022-07-01T09:21:35;7.13;;;0.60;;
44348;SDS011;30068;50.986;4.564;2022-07-01T09:24:04;2.13;;;0.60;;
44348;SDS011;30068;50.986;4.564;2022-07-01T09:26:54;3.88;;;0.50;;
44348;SDS011;30068;50.986;4.564;2022-07-01T09:29:27;5.18;;;0.50;;
44348;SDS011;30068;50.986;4.564;2022-07-01T09:31:56;3.83;;;0.53;;
44348;SDS011;30068;50.986;4.564;2022-07-01T09:34:22;3.13;;;0.60;;
44348;SDS011;30068;50.986;4.564;2022-07-01T09:36:51;3.33;;;0.50;;
44348;SDS011;30068;50.986;4.564;2022-07-01T09:39:18;2.90;;;0.32;;
44348;SDS011;30068;50.986;4.564;2022-07-01T09:41:44;5.40;;;0.60;;
44348;SDS011;30068;50.986;4.564;2022-07-01T09:44:09;2.75;;;0.60;;
44348;SDS011;30068;50.986;4.564;2022-07-01T09:46:35;4.90;;;0.50;;
44348;SDS011;30068;50.986;4.564;2022-07-01T09:49:01;3.50;;;0.60;;
44348;SDS011;30068;50.986;4.564;2022-07-01T09:51:28;1.77;;;0.43;;
44348;SDS011;30068;50.986;4.564;2022-07-01T09:53:55;6.35;;;0.70;;
44348;SDS011;30068;50.986;4.564;2022-07-01T09:56:25;2.25;;;0.50;;
44348;SDS011;30068;50.986;4.564;2022-07-01T09:58:50;3.72;;;0.47;;
44348;SDS011;30068;50.986;4.564;2022-07-01T10:01:16;4.57;;;0.55;;
44348;SDS011;30068;50.986;4.564;2022-07-01T10:03:42;1.83;;;0.47;;
44348;SDS011;30068;50.986;4.564;2022-07-01T10:14:37;1.30;;;0.50;;
44348;SDS011;30068;50.986;4.564;2022-07-01T10:17:05;6.20;;;0.60;;
44348;SDS011;30068;50.986;4.564;2022-07-01T10:19:31;3.35;;;0.80;;
44348;SDS011;30068;50.986;4.564;2022-07-01T10:24:51;3.33;;;0.70;;
44348;SDS011;30068;50.986;4.564;2022-07-01T10:27:21;1.85;;;0.60;;
44348;SDS011;30068;50.986;4.564;2022-07-01T10:29:49;5.03;;;0.80;;
44348;SDS011;30068;50.986;4.564;2022-07-01T10:32:41;4.60;;;0.60;;
44348;SDS011;30068;50.986;4.564;2022-07-01T10:35:14;3.65;;;0.80;;
44348;SDS011;30068;50.986;4.564;2022-07-01T10:37:59;4.18;;;0.80;;
44348;SDS011;30068;50.986;4.564;2022-07-01T10:40:41;4.53;;;1.15;;
44348;SDS011;30068;50.986;4.564;2022-07-01T10:43:17;7.22;;;0.85;;
44348;SDS011;30068;50.986;4.564;2022-07-01T10:45:56;2.08;;;0.90;;
44348;SDS011;30068;50.986;4.564;2022-07-01T10:48:23;10.27;;;0.95;;
44348;SDS011;30068;50.986;4.564;2022-07-01T10:50:49;4.10;;;0.75;;
44348;SDS011;30068;50.986;4.564;2022-07-01T10:53:16;3.53;;;0.70;;
44348;SDS011;30068;50.986;4.564;2022-07-01T10:55:47;2.67;;;0.90;;
44348;SDS011;30068;50.986;4.564;2022-07-01T10:58:15;3.00;;;0.88;;
44348;SDS011;30068;50.986;4.564;2022-07-01T11:00:44;2.63;;;0.60;;
44348;SDS011;30068;50.986;4.564;2022-07-01T11:03:12;3.97;;;0.80;;
44348;SDS011;30068;50.986;4.564;2022-07-01T11:05:46;3.90;;;0.80;;
44348;SDS011;30068;50.986;4.564;2022-07-01T11:08:14;4.03;;;0.70;;
44348;SDS011;30068;50.986;4.564;2022-07-01T11:10:40;3.63;;;0.80;;
44348;SDS011;30068;50.986;4.564;2022-07-01T11:13:07;2.00;;;0.73;;
44348;SDS011;30068;50.986;4.564;2022-07-01T11:15:37;4.90;;;0.82;;
44348;SDS011;30068;50.986;4.564;2022-07-01T11:18:04;3.65;;;0.70;;
44348;SDS011;30068;50.986;4.564;2022-07-01T11:20:31;2.90;;;0.63;;
44348;SDS011;30068;50.986;4.564;2022-07-01T11:22:57;2.67;;;0.60;;
44348;SDS011;30068;50.986;4.564;2022-07-01T11:25:24;2.70;;;0.63;;
44348;SDS011;30068;50.986;4.564;2022-07-01T11:27:51;2.00;;;0.57;;
44348;SDS011;30068;50.986;4.564;2022-07-01T11:30:18;4.45;;;0.80;;
44348;SDS011;30068;50.986;4.564;2022-07-01T11:32:49;3.60;;;0.70;;
44348;SDS011;30068;50.986;4.564;2022-07-01T11:35:37;4.05;;;0.70;;
44348;SDS011;30068;50.986;4.564;2022-07-01T11:41:25;2.20;;;0.40;;
44348;SDS011;30068;50.986;4.564;2022-07-01T11:43:51;2.75;;;0.60;;
44348;SDS011;30068;50.986;4.564;2022-07-01T11:46:19;3.15;;;0.60;;
44348;SDS011;30068;50.986;4.564;2022-07-01T11:48:49;1.15;;;0.40;;
44348;SDS011;30068;50.986;4.564;2022-07-01T11:51:20;1.40;;;0.47;;
44348;SDS011;30068;50.986;4.564;2022-07-01T11:53:48;1.77;;;0.45;;
44348;SDS011;30068;50.986;4.564;2022-07-01T11:56:15;3.55;;;0.63;;
44348;SDS011;30068;50.986;4.564;2022-07-01T11:58:46;3.50;;;0.60;;
44348;SDS011;30068;50.986;4.564;2022-07-01T12:01:20;2.33;;;0.50;;
44348;SDS011;30068;50.986;4.564;2022-07-01T12:03:47;4.68;;;0.70;;
44348;SDS011;30068;50.986;4.564;2022-07-01T12:06:13;3.15;;;0.50;;
44348;SDS011;30068;50.986;4.564;2022-07-01T12:08:40;3.70;;;0.52;;
44348;SDS011;30068;50.986;4.564;2022-07-01T12:11:05;3.03;;;0.52;;
44348;SDS011;30068;50.986;4.564;2022-07-01T12:13:34;2.20;;;0.50;;
44348;SDS011;30068;50.986;4.564;2022-07-01T12:16:10;1.35;;;0.47;;
44348;SDS011;30068;50.986;4.564;2022-07-01T12:18:37;2.08;;;0.43;;
44348;SDS011;30068;50.986;4.564;2022-07-01T12:21:03;3.45;;;0.60;;
44348;SDS011;30068;50.986;4.564;2022-07-01T12:23:29;3.00;;;0.52;;
44348;SDS011;30068;50.986;4.564;2022-07-01T12:25:57;2.83;;;0.43;;
44348;SDS011;30068;50.986;4.564;2022-07-01T12:28:31;2.72;;;0.50;;
44348;SDS011;30068;50.986;4.564;2022-07-01T12:31:06;2.88;;;0.43;;
44348;SDS011;30068;50.986;4.564;2022-07-01T12:33:36;2.58;;;0.40;;
44348;SDS011;30068;50.986;4.564;2022-07-01T12:36:03;1.73;;;0.40;;
44348;SDS011;30068;50.986;4.564;2022-07-01T12:38:32;1.13;;;0.35;;
44348;SDS011;30068;50.986;4.564;2022-07-01T12:40:59;1.48;;;0.32;;
44348;SDS011;30068;50.986;4.564;2022-07-01T12:43:29;3.47;;;0.43;;
44348;SDS011;30068;50.986;4.564;2022-07-01T12:45:59;1.60;;;0.32;;
44348;SDS011;30068;50.986;4.564;2022-07-01T12:48:25;1.60;;;0.32;;
44348;SDS011;30068;50.986;4.564;2022-07-01T12:50:52;3.17;;;0.50;;
44348;SDS011;30068;50.986;4.564;2022-07-01T12:53:20;2.90;;;0.50;;
44348;SDS011;30068;50.986;4.564;2022-07-01T12:55:48;2.42;;;0.40;;
44348;SDS011;30068;50.986;4.564;2022-07-01T12:58:20;3.72;;;0.60;;
44348;SDS011;30068;50.986;4.564;2022-07-01T13:00:55;2.60;;;0.40;;
44348;SDS011;30068;50.986;4.564;2022-07-01T13:03:26;2.42;;;0.50;;
44348;SDS011;30068;50.986;4.564;2022-07-01T13:05:53;2.80;;;0.50;;
44348;SDS011;30068;50.986;4.564;2022-07-01T13:08:20;1.23;;;0.50;;
44348;SDS011;30068;50.986;4.564;2022-07-01T13:10:47;0.68;;;0.22;;
44348;SDS011;30068;50.986;4.564;2022-07-01T13:13:13;3.70;;;0.57;;
44348;SDS011;30068;50.986;4.564;2022-07-01T13:15:39;2.60;;;0.45;;
44348;SDS011;30068;50.986;4.564;2022-07-01T13:18:05;3.03;;;0.40;;
44348;SDS011;30068;50.986;4.564;2022-07-01T13:20:33;1.08;;;0.38;;
44348;SDS011;30068;50.986;4.564;2022-07-01T13:22:59;2.13;;;0.40;;
44348;SDS011;30068;50.986;4.564;2022-07-01T13:25:25;2.30;;;0.50;;
44348;SDS011;30068;50.986;4.564;2022-07-01T13:27:51;3.35;;;0.50;;
44348;SDS011;30068;50.986;4.564;2022-07-01T13:30:17;1.92;;;0.63;;
44348;SDS011;30068;50.986;4.564;2022-07-01T13:32:43;1.85;;;0.50;;
44348;SDS011;30068;50.986;4.564;2022-07-01T13:35:10;6.13;;;0.77;;
44348;SDS011;30068;50.986;4.564;2022-07-01T13:37:37;1.83;;;0.52;;
44348;SDS011;30068;50.986;4.564;2022-07-01T13:40:04;2.78;;;0.60;;
44348;SDS011;30068;50.986;4.564;2022-07-01T13:42:30;2.75;;;0.50;;
44348;SDS011;30068;50.986;4.564;2022-07-01T13:44:56;3.65;;;0.50;;
44348;SDS011;30068;50.986;4.564;2022-07-01T13:47:23;1.40;;;0.40;;
44348;SDS011;30068;50.986;4.564;2022-07-01T13:49:49;3.55;;;0.80;;
44348;SDS011;30068;50.986;4.564;2022-07-01T13:52:15;2.70;;;0.50;;
44348;SDS011;30068;50.986;4.564;2022-07-01T13:54:40;5.43;;;0.47;;
44348;SDS011;30068;50.986;4.564;2022-07-01T13:57:06;1.70;;;0.50;;
44348;SDS011;30068;50.986;4.564;2022-07-01T13:59:32;4.07;;;0.50;;
44348;SDS011;30068;50.986;4.564;2022-07-01T14:01:58;2.28;;;0.50;;
44348;SDS011;30068;50.986;4.564;2022-07-01T14:04:23;3.00;;;0.60;;
44348;SDS011;30068;50.986;4.564;2022-07-01T14:06:49;1.90;;;0.50;;
44348;SDS011;30068;50.986;4.564;2022-07-01T14:09:15;2.25;;;0.30;;
44348;SDS011;30068;50.986;4.564;2022-07-01T14:11:41;4.38;;;0.40;;
44348;SDS011;30068;50.986;4.564;2022-07-01T14:14:06;2.85;;;0.47;;
44348;SDS011;30068;50.986;4.564;2022-07-01T14:16:32;3.92;;;0.50;;
44348;SDS011;30068;50.986;4.564;2022-07-01T14:18:58;0.40;;;0.20;;
44348;SDS011;30068;50.986;4.564;2022-07-01T14:21:24;4.03;;;0.60;;
44348;SDS011;30068;50.986;4.564;2022-07-01T14:23:51;4.25;;;0.70;;
44348;SDS011;30068;50.986;4.564;2022-07-01T14:26:17;2.00;;;0.50;;
44348;SDS011;30068;50.986;4.564;2022-07-01T14:28:43;3.28;;;0.60;;
44348;SDS011;30068;50.986;4.564;2022-07-01T14:31:08;2.83;;;0.60;;
44348;SDS011;30068;50.986;4.564;2022-07-01T14:33:34;4.97;;;0.80;;
44348;SDS011;30068;50.986;4.564;2022-07-01T14:36:00;6.85;;;0.90;;
44348;SDS011;30068;50.986;4.564;2022-07-01T14:38:26;2.88;;;0.80;;
44348;SDS011;30068;50.986;4.564;2022-07-01T14:40:51;4.28;;;0.60;;
44348;SDS011;30068;50.986;4.564;2022-07-01T14:43:18;3.45;;;0.98;;
44348;SDS011;30068;50.986;4.564;2022-07-01T14:45:44;2.55;;;0.50;;
44348;SDS011;30068;50.986;4.564;2022-07-01T14:48:10;2.13;;;0.60;;
44348;SDS011;30068;50.986;4.564;2022-07-01T14:50:36;3.67;;;0.85;;
44348;SDS011;30068;50.986;4.564;2022-07-01T14:53:02;3.00;;;0.60;;
44348;SDS011;30068;50.986;4.564;2022-07-01T14:55:28;1.20;;;0.50;;
44348;SDS011;30068;50.986;4.564;2022-07-01T14:57:55;2.95;;;0.45;;
44348;SDS011;30068;50.986;4.564;2022-07-01T15:00:20;4.70;;;0.60;;